sensor_id;sensor_type;location;lat;lon;timestamp;P1;durP1;ratioP1;P2;durP2;ratioP2
5452;SDS011;2749;53.576;9.822;2023-04-03T00:00:56;5.33;;;2.40;;
5452;SDS011;2749;53.576;9.822;2023-04-03T00:03:23;6.63;;;3.10;;
5452;SDS011;2749;53.576;9.822;2023-04-03T00:05:48;3.30;;;2.37;;
5452;SDS011;2749;53.576;9.822;2023-04-03T00:08:15;3.20;;;2.13;;
5452;SDS011;2749;53.576;9.822;2023-04-03T00:10:41;5.90;;;2.77;;
5452;SDS011;2749;53.576;9.822;2023-04-03T00:13:07;7.57;;;2.37;;
5452;SDS011;2749;53.576;9.822;2023-04-03T00:15:33;4.93;;;2.50;;
5452;SDS011;2749;53.576;9.822;2023-04-03T00:17:59;2.77;;;2.27;;
5452;SDS011;2749;53.576;9.822;2023-04-03T00:20:26;4.90;;;2.57;;
5452;SDS011;2749;53.576;9.822;2023-04-03T00:22:52;4.80;;;3.13;;
5452;SDS011;2749;53.576;9.822;2023-04-03T00:25:18;6.00;;;2.60;;
5452;SDS011;2749;53.576;9.822;2023-04-03T00:27:44;3.83;;;2.57;;
5452;SDS011;2749;53.576;9.822;2023-04-03T00:30:11;4.37;;;2.23;;
5452;SDS011;2749;53.576;9.822;2023-04-03T00:32:38;3.87;;;2.00;;
5452;SDS011;2749;53.576;9.822;2023-04-03T00:35:04;3.93;;;2.43;;
5452;SDS011;2749;53.576;9.822;2023-04-03T00:37:30;4.40;;;2.13;;
5452;SDS011;2749;53.576;9.822;2023-04-03T00:39:56;2.23;;;2.03;;
5452;SDS011;2749;53.576;9.822;2023-04-03T00:42:23;2.80;;;2.30;;
5452;SDS011;2749;53.576;9.822;2023-04-03T00:47:16;5.43;;;2.93;;
5452;SDS011;2749;53.576;9.822;2023-04-03T00:49:42;7.33;;;3.10;;
5452;SDS011;2749;53.576;9.822;2023-04-03T00:52:10;4.73;;;2.70;;
5452;SDS011;2749;53.576;9.822;2023-04-03T00:54:37;5.80;;;2.40;;
5452;SDS011;2749;53.576;9.822;2023-04-03T00:57:04;3.07;;;2.13;;
5452;SDS011;2749;53.576;9.822;2023-04-03T00:59:32;4.60;;;2.80;;
5452;SDS011;2749;53.576;9.822;2023-04-03T01:01:59;4.73;;;3.10;;
5452;SDS011;2749;53.576;9.822;2023-04-03T01:04:38;9.23;;;4.00;;
5452;SDS011;2749;53.576;9.822;2023-04-03T01:07:07;4.33;;;2.43;;
5452;SDS011;2749;53.576;9.822;2023-04-03T01:09:33;5.30;;;2.57;;
5452;SDS011;2749;53.576;9.822;2023-04-03T01:14:44;4.40;;;3.10;;
5452;SDS011;2749;53.576;9.822;2023-04-03T01:19:49;6.50;;;2.20;;
5452;SDS011;2749;53.576;9.822;2023-04-03T01:22:19;6.13;;;2.83;;
5452;SDS011;2749;53.576;9.822;2023-04-03T01:24:49;6.83;;;2.43;;
5452;SDS011;2749;53.576;9.822;2023-04-03T01:27:16;3.07;;;2.20;;
5452;SDS011;2749;53.576;9.822;2023-04-03T01:29:42;3.97;;;2.27;;
5452;SDS011;2749;53.576;9.822;2023-04-03T01:32:08;4.03;;;2.27;;
5452;SDS011;2749;53.576;9.822;2023-04-03T01:34:34;4.90;;;2.67;;
5452;SDS011;2749;53.576;9.822;2023-04-03T01:37:00;3.67;;;2.63;;
5452;SDS011;2749;53.576;9.822;2023-04-03T01:39:26;3.63;;;2.03;;
5452;SDS011;2749;53.576;9.822;2023-04-03T01:41:52;3.37;;;2.30;;
5452;SDS011;2749;53.576;9.822;2023-04-03T01:44:18;4.27;;;2.30;;
5452;SDS011;2749;53.576;9.822;2023-04-03T01:46:44;7.27;;;3.03;;
5452;SDS011;2749;53.576;9.822;2023-04-03T01:49:10;7.40;;;2.57;;
5452;SDS011;2749;53.576;9.822;2023-04-03T01:51:36;3.73;;;2.57;;
5452;SDS011;2749;53.576;9.822;2023-04-03T01:54:02;3.80;;;2.13;;
5452;SDS011;2749;53.576;9.822;2023-04-03T01:56:28;4.60;;;2.53;;
5452;SDS011;2749;53.576;9.822;2023-04-03T01:58:54;2.80;;;2.30;;
5452;SDS011;2749;53.576;9.822;2023-04-03T02:01:20;3.00;;;2.13;;
5452;SDS011;2749;53.576;9.822;2023-04-03T02:03:46;3.87;;;1.93;;
5452;SDS011;2749;53.576;9.822;2023-04-03T02:06:12;5.73;;;2.80;;
5452;SDS011;2749;53.576;9.822;2023-04-03T02:08:38;6.90;;;3.70;;
5452;SDS011;2749;53.576;9.822;2023-04-03T02:11:03;3.87;;;3.10;;
5452;SDS011;2749;53.576;9.822;2023-04-03T02:13:29;4.90;;;2.13;;
5452;SDS011;2749;53.576;9.822;2023-04-03T02:15:55;5.43;;;2.60;;
5452;SDS011;2749;53.576;9.822;2023-04-03T02:18:21;3.67;;;2.10;;
5452;SDS011;2749;53.576;9.822;2023-04-03T02:20:47;5.33;;;2.60;;
5452;SDS011;2749;53.576;9.822;2023-04-03T02:23:13;4.17;;;2.57;;
5452;SDS011;2749;53.576;9.822;2023-04-03T02:25:39;6.60;;;2.80;;
5452;SDS011;2749;53.576;9.822;2023-04-03T02:28:05;4.20;;;2.47;;
5452;SDS011;2749;53.576;9.822;2023-04-03T02:30:31;8.33;;;3.40;;
5452;SDS011;2749;53.576;9.822;2023-04-03T02:32:57;7.80;;;3.27;;
5452;SDS011;2749;53.576;9.822;2023-04-03T02:35:23;6.60;;;2.50;;
5452;SDS011;2749;53.576;9.822;2023-04-03T02:37:49;11.03;;;2.60;;
5452;SDS011;2749;53.576;9.822;2023-04-03T02:40:17;5.37;;;2.40;;
5452;SDS011;2749;53.576;9.822;2023-04-03T02:42:43;3.60;;;2.40;;
5452;SDS011;2749;53.576;9.822;2023-04-03T02:45:09;13.73;;;2.70;;
5452;SDS011;2749;53.576;9.822;2023-04-03T02:47:35;6.87;;;2.10;;
5452;SDS011;2749;53.576;9.822;2023-04-03T02:50:01;6.50;;;3.23;;
5452;SDS011;2749;53.576;9.822;2023-04-03T02:52:27;7.20;;;2.53;;
5452;SDS011;2749;53.576;9.822;2023-04-03T02:54:52;5.23;;;2.90;;
5452;SDS011;2749;53.576;9.822;2023-04-03T02:57:19;5.50;;;2.50;;
5452;SDS011;2749;53.576;9.822;2023-04-03T02:59:45;6.33;;;3.57;;
5452;SDS011;2749;53.576;9.822;2023-04-03T03:02:11;7.87;;;3.50;;
5452;SDS011;2749;53.576;9.822;2023-04-03T03:04:37;8.27;;;2.70;;
5452;SDS011;2749;53.576;9.822;2023-04-03T03:07:03;5.73;;;3.10;;
5452;SDS011;2749;53.576;9.822;2023-04-03T03:09:29;6.50;;;3.13;;
5452;SDS011;2749;53.576;9.822;2023-04-03T03:11:56;8.80;;;4.23;;
5452;SDS011;2749;53.576;9.822;2023-04-03T03:14:22;9.03;;;2.40;;
5452;SDS011;2749;53.576;9.822;2023-04-03T03:16:48;5.73;;;2.70;;
5452;SDS011;2749;53.576;9.822;2023-04-03T03:19:14;4.80;;;2.70;;
5452;SDS011;2749;53.576;9.822;2023-04-03T03:21:40;2.90;;;2.07;;
5452;SDS011;2749;53.576;9.822;2023-04-03T03:24:06;3.47;;;2.30;;
5452;SDS011;2749;53.576;9.822;2023-04-03T03:26:32;4.10;;;3.17;;
5452;SDS011;2749;53.576;9.822;2023-04-03T03:28:58;5.10;;;3.30;;
5452;SDS011;2749;53.576;9.822;2023-04-03T03:31:24;6.70;;;2.67;;
5452;SDS011;2749;53.576;9.822;2023-04-03T03:33:50;5.33;;;3.73;;
5452;SDS011;2749;53.576;9.822;2023-04-03T03:36:16;3.30;;;2.30;;
5452;SDS011;2749;53.576;9.822;2023-04-03T03:38:41;5.00;;;2.40;;
5452;SDS011;2749;53.576;9.822;2023-04-03T03:41:07;2.90;;;2.33;;
5452;SDS011;2749;53.576;9.822;2023-04-03T03:43:33;3.83;;;3.53;;
5452;SDS011;2749;53.576;9.822;2023-04-03T03:45:59;4.33;;;2.60;;
5452;SDS011;2749;53.576;9.822;2023-04-03T03:48:25;6.37;;;3.00;;
5452;SDS011;2749;53.576;9.822;2023-04-03T03:50:51;5.60;;;2.80;;
5452;SDS011;2749;53.576;9.822;2023-04-03T03:53:17;3.37;;;3.00;;
5452;SDS011;2749;53.576;9.822;2023-04-03T03:55:44;6.40;;;3.47;;
5452;SDS011;2749;53.576;9.822;2023-04-03T03:58:10;4.60;;;3.63;;
5452;SDS011;2749;53.576;9.822;2023-04-03T04:00:36;5.43;;;2.63;;
5452;SDS011;2749;53.576;9.822;2023-04-03T04:03:02;6.83;;;4.33;;
5452;SDS011;2749;53.576;9.822;2023-04-03T04:05:28;6.57;;;3.70;;
5452;SDS011;2749;53.576;9.822;2023-04-03T04:07:54;9.53;;;4.17;;
5452;SDS011;2749;53.576;9.822;2023-04-03T04:10:20;5.40;;;4.10;;
5452;SDS011;2749;53.576;9.822;2023-04-03T04:12:46;3.80;;;3.03;;
5452;SDS011;2749;53.576;9.822;2023-04-03T04:15:14;6.43;;;3.33;;
5452;SDS011;2749;53.576;9.822;2023-04-03T04:17:39;5.37;;;3.30;;
5452;SDS011;2749;53.576;9.822;2023-04-03T04:20:06;6.03;;;3.70;;
5452;SDS011;2749;53.576;9.822;2023-04-03T04:22:32;13.97;;;3.90;;
5452;SDS011;2749;53.576;9.822;2023-04-03T04:24:58;10.17;;;3.83;;
5452;SDS011;2749;53.576;9.822;2023-04-03T04:27:23;3.73;;;3.23;;
5452;SDS011;2749;53.576;9.822;2023-04-03T04:29:49;5.47;;;4.33;;
5452;SDS011;2749;53.576;9.822;2023-04-03T04:32:15;5.73;;;3.43;;
5452;SDS011;2749;53.576;9.822;2023-04-03T04:34:41;6.53;;;3.83;;
5452;SDS011;2749;53.576;9.822;2023-04-03T04:37:07;4.07;;;3.67;;
5452;SDS011;2749;53.576;9.822;2023-04-03T04:39:33;6.07;;;4.30;;
5452;SDS011;2749;53.576;9.822;2023-04-03T04:41:59;6.40;;;4.47;;
5452;SDS011;2749;53.576;9.822;2023-04-03T04:44:25;4.73;;;4.13;;
5452;SDS011;2749;53.576;9.822;2023-04-03T04:46:51;5.63;;;4.40;;
5452;SDS011;2749;53.576;9.822;2023-04-03T04:49:17;7.00;;;5.17;;
5452;SDS011;2749;53.576;9.822;2023-04-03T04:51:43;7.37;;;5.17;;
5452;SDS011;2749;53.576;9.822;2023-04-03T04:54:09;5.40;;;4.90;;
5452;SDS011;2749;53.576;9.822;2023-04-03T04:56:35;9.13;;;5.47;;
5452;SDS011;2749;53.576;9.822;2023-04-03T04:59:01;4.60;;;3.20;;
5452;SDS011;2749;53.576;9.822;2023-04-03T05:01:27;6.80;;;3.90;;
5452;SDS011;2749;53.576;9.822;2023-04-03T05:03:53;4.87;;;3.27;;
5452;SDS011;2749;53.576;9.822;2023-04-03T05:06:20;4.67;;;4.23;;
5452;SDS011;2749;53.576;9.822;2023-04-03T05:08:45;6.20;;;3.90;;
5452;SDS011;2749;53.576;9.822;2023-04-03T05:11:11;6.03;;;3.00;;
5452;SDS011;2749;53.576;9.822;2023-04-03T05:13:37;7.77;;;3.00;;
5452;SDS011;2749;53.576;9.822;2023-04-03T05:16:03;4.50;;;3.40;;
5452;SDS011;2749;53.576;9.822;2023-04-03T05:18:29;4.27;;;3.63;;
5452;SDS011;2749;53.576;9.822;2023-04-03T05:20:55;5.70;;;3.77;;
5452;SDS011;2749;53.576;9.822;2023-04-03T05:23:22;8.30;;;4.20;;
5452;SDS011;2749;53.576;9.822;2023-04-03T05:25:48;5.93;;;4.50;;
5452;SDS011;2749;53.576;9.822;2023-04-03T05:28:14;4.70;;;4.17;;
5452;SDS011;2749;53.576;9.822;2023-04-03T05:30:40;4.00;;;3.20;;
5452;SDS011;2749;53.576;9.822;2023-04-03T05:33:06;12.43;;;3.73;;
5452;SDS011;2749;53.576;9.822;2023-04-03T05:35:32;6.13;;;4.43;;
5452;SDS011;2749;53.576;9.822;2023-04-03T05:37:58;11.30;;;4.60;;
5452;SDS011;2749;53.576;9.822;2023-04-03T05:40:24;9.57;;;3.17;;
5452;SDS011;2749;53.576;9.822;2023-04-03T05:42:51;4.70;;;3.10;;
5452;SDS011;2749;53.576;9.822;2023-04-03T05:45:18;4.50;;;3.83;;
5452;SDS011;2749;53.576;9.822;2023-04-03T05:47:44;4.23;;;3.53;;
5452;SDS011;2749;53.576;9.822;2023-04-03T05:50:10;6.87;;;3.20;;
5452;SDS011;2749;53.576;9.822;2023-04-03T05:52:36;4.40;;;3.40;;
5452;SDS011;2749;53.576;9.822;2023-04-03T05:55:03;9.10;;;4.63;;
5452;SDS011;2749;53.576;9.822;2023-04-03T05:57:30;8.33;;;4.40;;
5452;SDS011;2749;53.576;9.822;2023-04-03T05:59:56;6.20;;;3.90;;
5452;SDS011;2749;53.576;9.822;2023-04-03T06:02:22;9.80;;;5.20;;
5452;SDS011;2749;53.576;9.822;2023-04-03T06:04:49;2.73;;;2.50;;
5452;SDS011;2749;53.576;9.822;2023-04-03T06:07:16;5.13;;;4.23;;
5452;SDS011;2749;53.576;9.822;2023-04-03T06:09:43;6.70;;;4.13;;
5452;SDS011;2749;53.576;9.822;2023-04-03T06:12:09;5.60;;;3.70;;
5452;SDS011;2749;53.576;9.822;2023-04-03T06:14:36;5.20;;;3.63;;
5452;SDS011;2749;53.576;9.822;2023-04-03T06:17:02;6.60;;;3.87;;
5452;SDS011;2749;53.576;9.822;2023-04-03T06:19:28;7.90;;;4.13;;
5452;SDS011;2749;53.576;9.822;2023-04-03T06:21:54;15.33;;;4.60;;
5452;SDS011;2749;53.576;9.822;2023-04-03T06:24:20;9.23;;;4.70;;
5452;SDS011;2749;53.576;9.822;2023-04-03T06:26:48;4.53;;;4.13;;
5452;SDS011;2749;53.576;9.822;2023-04-03T06:29:16;5.20;;;4.70;;
5452;SDS011;2749;53.576;9.822;2023-04-03T06:31:42;8.53;;;4.33;;
5452;SDS011;2749;53.576;9.822;2023-04-03T06:34:08;10.33;;;4.47;;
5452;SDS011;2749;53.576;9.822;2023-04-03T06:36:34;8.93;;;4.37;;
5452;SDS011;2749;53.576;9.822;2023-04-03T06:39:00;6.27;;;3.30;;
5452;SDS011;2749;53.576;9.822;2023-04-03T06:41:27;5.83;;;4.10;;
5452;SDS011;2749;53.576;9.822;2023-04-03T06:43:53;6.60;;;4.00;;
5452;SDS011;2749;53.576;9.822;2023-04-03T06:46:21;7.90;;;3.87;;
5452;SDS011;2749;53.576;9.822;2023-04-03T06:48:47;7.50;;;4.10;;
5452;SDS011;2749;53.576;9.822;2023-04-03T06:51:18;7.03;;;4.20;;
5452;SDS011;2749;53.576;9.822;2023-04-03T06:53:44;14.53;;;4.27;;
5452;SDS011;2749;53.576;9.822;2023-04-03T06:56:11;12.97;;;3.93;;
5452;SDS011;2749;53.576;9.822;2023-04-03T06:58:37;5.97;;;3.00;;
5452;SDS011;2749;53.576;9.822;2023-04-03T07:01:03;6.07;;;4.13;;
5452;SDS011;2749;53.576;9.822;2023-04-03T07:03:29;3.57;;;2.50;;
5452;SDS011;2749;53.576;9.822;2023-04-03T07:05:55;9.67;;;4.10;;
5452;SDS011;2749;53.576;9.822;2023-04-03T07:08:21;6.90;;;3.10;;
5452;SDS011;2749;53.576;9.822;2023-04-03T07:10:48;5.17;;;3.33;;
5452;SDS011;2749;53.576;9.822;2023-04-03T07:13:15;6.03;;;2.93;;
5452;SDS011;2749;53.576;9.822;2023-04-03T07:15:41;4.77;;;2.57;;
5452;SDS011;2749;53.576;9.822;2023-04-03T07:18:07;5.40;;;3.70;;
5452;SDS011;2749;53.576;9.822;2023-04-03T07:20:33;10.33;;;2.97;;
5452;SDS011;2749;53.576;9.822;2023-04-03T07:22:59;7.57;;;2.93;;
5452;SDS011;2749;53.576;9.822;2023-04-03T07:25:26;6.73;;;2.97;;
5452;SDS011;2749;53.576;9.822;2023-04-03T07:27:52;4.17;;;2.40;;
5452;SDS011;2749;53.576;9.822;2023-04-03T07:30:19;3.60;;;2.23;;
5452;SDS011;2749;53.576;9.822;2023-04-03T07:32:45;6.27;;;2.70;;
5452;SDS011;2749;53.576;9.822;2023-04-03T07:35:11;4.57;;;1.90;;
5452;SDS011;2749;53.576;9.822;2023-04-03T07:37:37;3.50;;;2.20;;
5452;SDS011;2749;53.576;9.822;2023-04-03T07:40:03;5.13;;;2.30;;
5452;SDS011;2749;53.576;9.822;2023-04-03T07:42:29;3.63;;;1.93;;
5452;SDS011;2749;53.576;9.822;2023-04-03T07:44:56;2.03;;;1.60;;
5452;SDS011;2749;53.576;9.822;2023-04-03T07:47:22;3.87;;;1.90;;
5452;SDS011;2749;53.576;9.822;2023-04-03T07:49:48;2.67;;;1.90;;
5452;SDS011;2749;53.576;9.822;2023-04-03T07:52:14;2.60;;;1.60;;
5452;SDS011;2749;53.576;9.822;2023-04-03T07:54:40;2.50;;;0.97;;
5452;SDS011;2749;53.576;9.822;2023-04-03T07:57:06;1.50;;;1.40;;
5452;SDS011;2749;53.576;9.822;2023-04-03T07:59:32;4.10;;;1.53;;
5452;SDS011;2749;53.576;9.822;2023-04-03T08:01:58;2.30;;;1.20;;
5452;SDS011;2749;53.576;9.822;2023-04-03T08:04:24;8.03;;;1.50;;
5452;SDS011;2749;53.576;9.822;2023-04-03T08:06:50;7.80;;;1.57;;
5452;SDS011;2749;53.576;9.822;2023-04-03T08:09:16;3.17;;;1.27;;
5452;SDS011;2749;53.576;9.822;2023-04-03T08:11:43;2.90;;;1.30;;
5452;SDS011;2749;53.576;9.822;2023-04-03T08:14:10;2.13;;;1.00;;
5452;SDS011;2749;53.576;9.822;2023-04-03T08:16:40;2.50;;;1.20;;
5452;SDS011;2749;53.576;9.822;2023-04-03T08:19:06;2.73;;;1.60;;
5452;SDS011;2749;53.576;9.822;2023-04-03T08:21:32;1.83;;;1.50;;
5452;SDS011;2749;53.576;9.822;2023-04-03T08:23:58;6.87;;;1.20;;
5452;SDS011;2749;53.576;9.822;2023-04-03T08:26:24;3.17;;;1.77;;
5452;SDS011;2749;53.576;9.822;2023-04-03T08:28:51;1.93;;;1.10;;
5452;SDS011;2749;53.576;9.822;2023-04-03T08:31:18;3.13;;;1.10;;
5452;SDS011;2749;53.576;9.822;2023-04-03T08:33:44;1.00;;;0.80;;
5452;SDS011;2749;53.576;9.822;2023-04-03T08:36:18;2.03;;;1.10;;
5452;SDS011;2749;53.576;9.822;2023-04-03T08:38:44;3.60;;;1.00;;
5452;SDS011;2749;53.576;9.822;2023-04-03T08:41:20;6.00;;;1.17;;
5452;SDS011;2749;53.576;9.822;2023-04-03T08:43:57;3.10;;;1.17;;
5452;SDS011;2749;53.576;9.822;2023-04-03T08:46:29;1.70;;;1.30;;
5452;SDS011;2749;53.576;9.822;2023-04-03T08:48:57;4.60;;;1.60;;
5452;SDS011;2749;53.576;9.822;2023-04-03T08:51:24;1.83;;;0.87;;
5452;SDS011;2749;53.576;9.822;2023-04-03T08:54:02;1.70;;;1.40;;
5452;SDS011;2749;53.576;9.822;2023-04-03T08:56:30;1.30;;;0.70;;
5452;SDS011;2749;53.576;9.822;2023-04-03T08:59:01;2.27;;;1.10;;
5452;SDS011;2749;53.576;9.822;2023-04-03T09:01:34;4.77;;;1.10;;
5452;SDS011;2749;53.576;9.822;2023-04-03T09:04:01;3.97;;;1.27;;
5452;SDS011;2749;53.576;9.822;2023-04-03T09:06:29;5.13;;;1.20;;
5452;SDS011;2749;53.576;9.822;2023-04-03T09:11:44;3.13;;;1.20;;
5452;SDS011;2749;53.576;9.822;2023-04-03T09:19:13;3.60;;;1.03;;
5452;SDS011;2749;53.576;9.822;2023-04-03T09:21:41;1.00;;;0.80;;
5452;SDS011;2749;53.576;9.822;2023-04-03T09:24:07;2.30;;;1.27;;
5452;SDS011;2749;53.576;9.822;2023-04-03T09:26:36;3.10;;;0.87;;
5452;SDS011;2749;53.576;9.822;2023-04-03T09:29:05;4.87;;;1.20;;
5452;SDS011;2749;53.576;9.822;2023-04-03T09:31:39;1.90;;;1.20;;
5452;SDS011;2749;53.576;9.822;2023-04-03T09:34:06;1.83;;;1.30;;
5452;SDS011;2749;53.576;9.822;2023-04-03T09:36:39;5.13;;;1.50;;
5452;SDS011;2749;53.576;9.822;2023-04-03T09:39:07;2.40;;;1.10;;
5452;SDS011;2749;53.576;9.822;2023-04-03T09:41:35;1.87;;;1.07;;
5452;SDS011;2749;53.576;9.822;2023-04-03T09:44:01;2.00;;;1.23;;
5452;SDS011;2749;53.576;9.822;2023-04-03T09:46:31;2.93;;;1.30;;
5452;SDS011;2749;53.576;9.822;2023-04-03T09:49:03;1.10;;;0.70;;
5452;SDS011;2749;53.576;9.822;2023-04-03T09:51:29;1.57;;;1.27;;
5452;SDS011;2749;53.576;9.822;2023-04-03T09:53:56;2.90;;;1.00;;
5452;SDS011;2749;53.576;9.822;2023-04-03T09:56:23;3.47;;;1.13;;
5452;SDS011;2749;53.576;9.822;2023-04-03T10:01:27;3.00;;;1.00;;
5452;SDS011;2749;53.576;9.822;2023-04-03T10:04:13;1.23;;;0.83;;
5452;SDS011;2749;53.576;9.822;2023-04-03T10:06:40;2.20;;;1.17;;
5452;SDS011;2749;53.576;9.822;2023-04-03T10:11:56;3.63;;;1.00;;
5452;SDS011;2749;53.576;9.822;2023-04-03T10:14:22;2.70;;;1.20;;
5452;SDS011;2749;53.576;9.822;2023-04-03T10:16:53;4.10;;;0.90;;
5452;SDS011;2749;53.576;9.822;2023-04-03T10:21:50;1.10;;;0.90;;
5452;SDS011;2749;53.576;9.822;2023-04-03T10:24:24;4.90;;;1.07;;
5452;SDS011;2749;53.576;9.822;2023-04-03T10:29:42;4.10;;;1.30;;
5452;SDS011;2749;53.576;9.822;2023-04-03T10:32:15;1.50;;;1.20;;
5452;SDS011;2749;53.576;9.822;2023-04-03T10:34:44;4.80;;;1.07;;
5452;SDS011;2749;53.576;9.822;2023-04-03T10:37:13;1.10;;;0.93;;
5452;SDS011;2749;53.576;9.822;2023-04-03T10:39:50;3.47;;;1.10;;
5452;SDS011;2749;53.576;9.822;2023-04-03T10:47:34;2.40;;;0.80;;
5452;SDS011;2749;53.576;9.822;2023-04-03T10:58:00;1.63;;;0.87;;
5452;SDS011;2749;53.576;9.822;2023-04-03T11:00:39;3.27;;;1.03;;
5452;SDS011;2749;53.576;9.822;2023-04-03T11:03:09;3.43;;;1.10;;
5452;SDS011;2749;53.576;9.822;2023-04-03T11:05:41;3.63;;;1.23;;
5452;SDS011;2749;53.576;9.822;2023-04-03T11:08:14;2.53;;;1.20;;
5452;SDS011;2749;53.576;9.822;2023-04-03T11:10:42;2.00;;;1.00;;
5452;SDS011;2749;53.576;9.822;2023-04-03T11:13:11;6.40;;;1.83;;
5452;SDS011;2749;53.576;9.822;2023-04-03T11:15:38;2.27;;;1.37;;
5452;SDS011;2749;53.576;9.822;2023-04-03T11:18:06;3.10;;;1.70;;
5452;SDS011;2749;53.576;9.822;2023-04-03T11:20:35;3.23;;;1.70;;
5452;SDS011;2749;53.576;9.822;2023-04-03T11:25:49;3.87;;;1.10;;
5452;SDS011;2749;53.576;9.822;2023-04-03T11:28:17;4.47;;;1.20;;
5452;SDS011;2749;53.576;9.822;2023-04-03T11:30:52;4.07;;;1.23;;
5452;SDS011;2749;53.576;9.822;2023-04-03T11:36:18;4.50;;;1.10;;
5452;SDS011;2749;53.576;9.822;2023-04-03T11:38:45;4.03;;;1.80;;
5452;SDS011;2749;53.576;9.822;2023-04-03T11:41:12;3.07;;;1.13;;
5452;SDS011;2749;53.576;9.822;2023-04-03T11:43:42;5.73;;;1.40;;
5452;SDS011;2749;53.576;9.822;2023-04-03T11:46:08;3.27;;;0.93;;
5452;SDS011;2749;53.576;9.822;2023-04-03T11:53:36;2.50;;;1.20;;
5452;SDS011;2749;53.576;9.822;2023-04-03T12:04:09;1.47;;;1.27;;
5452;SDS011;2749;53.576;9.822;2023-04-03T12:09:19;3.30;;;1.90;;
5452;SDS011;2749;53.576;9.822;2023-04-03T12:11:48;1.70;;;1.60;;
5452;SDS011;2749;53.576;9.822;2023-04-03T12:14:14;1.60;;;1.43;;
5452;SDS011;2749;53.576;9.822;2023-04-03T12:24:26;2.40;;;1.20;;
5452;SDS011;2749;53.576;9.822;2023-04-03T12:37:35;2.23;;;1.40;;
5452;SDS011;2749;53.576;9.822;2023-04-03T12:40:07;2.10;;;1.33;;
5452;SDS011;2749;53.576;9.822;2023-04-03T12:42:44;1.17;;;1.07;;
5452;SDS011;2749;53.576;9.822;2023-04-03T12:45:17;1.63;;;0.80;;
5452;SDS011;2749;53.576;9.822;2023-04-03T12:47:45;1.20;;;1.10;;
5452;SDS011;2749;53.576;9.822;2023-04-03T12:50:16;1.33;;;1.20;;
5452;SDS011;2749;53.576;9.822;2023-04-03T12:52:47;1.10;;;1.00;;
5452;SDS011;2749;53.576;9.822;2023-04-03T12:55:19;2.40;;;1.13;;
5452;SDS011;2749;53.576;9.822;2023-04-03T12:57:45;1.60;;;1.27;;
5452;SDS011;2749;53.576;9.822;2023-04-03T13:02:47;2.67;;;0.90;;
5452;SDS011;2749;53.576;9.822;2023-04-03T13:05:15;2.83;;;1.33;;
5452;SDS011;2749;53.576;9.822;2023-04-03T13:07:42;1.77;;;1.40;;
5452;SDS011;2749;53.576;9.822;2023-04-03T13:12:34;2.67;;;1.27;;
5452;SDS011;2749;53.576;9.822;2023-04-03T13:15:02;4.07;;;1.40;;
5452;SDS011;2749;53.576;9.822;2023-04-03T13:17:29;1.00;;;0.83;;
5452;SDS011;2749;53.576;9.822;2023-04-03T13:19:56;2.07;;;1.20;;
5452;SDS011;2749;53.576;9.822;2023-04-03T13:22:36;2.40;;;1.37;;
5452;SDS011;2749;53.576;9.822;2023-04-03T13:25:06;1.47;;;1.00;;
5452;SDS011;2749;53.576;9.822;2023-04-03T13:27:33;3.07;;;1.20;;
5452;SDS011;2749;53.576;9.822;2023-04-03T13:30:00;3.40;;;1.80;;
5452;SDS011;2749;53.576;9.822;2023-04-03T13:32:27;2.40;;;1.23;;
5452;SDS011;2749;53.576;9.822;2023-04-03T13:34:54;1.00;;;0.87;;
5452;SDS011;2749;53.576;9.822;2023-04-03T13:37:27;4.30;;;1.37;;
5452;SDS011;2749;53.576;9.822;2023-04-03T13:39:57;1.53;;;0.90;;
5452;SDS011;2749;53.576;9.822;2023-04-03T13:42:25;1.80;;;1.07;;
5452;SDS011;2749;53.576;9.822;2023-04-03T13:47:40;4.43;;;1.03;;
5452;SDS011;2749;53.576;9.822;2023-04-03T13:52:49;2.50;;;1.50;;
5452;SDS011;2749;53.576;9.822;2023-04-03T13:55:17;4.30;;;1.67;;
5452;SDS011;2749;53.576;9.822;2023-04-03T13:57:50;1.50;;;1.00;;
5452;SDS011;2749;53.576;9.822;2023-04-03T14:02:55;2.27;;;1.30;;
5452;SDS011;2749;53.576;9.822;2023-04-03T14:05:22;3.33;;;1.07;;
5452;SDS011;2749;53.576;9.822;2023-04-03T14:07:49;3.60;;;1.40;;
5452;SDS011;2749;53.576;9.822;2023-04-03T14:10:15;1.20;;;1.10;;
5452;SDS011;2749;53.576;9.822;2023-04-03T14:12:41;2.90;;;1.13;;
5452;SDS011;2749;53.576;9.822;2023-04-03T14:15:16;3.57;;;0.90;;
5452;SDS011;2749;53.576;9.822;2023-04-03T14:17:43;3.50;;;1.03;;
5452;SDS011;2749;53.576;9.822;2023-04-03T14:20:20;3.23;;;1.30;;
5452;SDS011;2749;53.576;9.822;2023-04-03T14:22:46;1.90;;;1.37;;
5452;SDS011;2749;53.576;9.822;2023-04-03T14:25:13;3.80;;;1.23;;
5452;SDS011;2749;53.576;9.822;2023-04-03T14:27:41;2.20;;;1.20;;
5452;SDS011;2749;53.576;9.822;2023-04-03T14:30:15;3.33;;;1.23;;
5452;SDS011;2749;53.576;9.822;2023-04-03T14:32:42;4.67;;;1.30;;
5452;SDS011;2749;53.576;9.822;2023-04-03T14:35:08;2.77;;;1.50;;
5452;SDS011;2749;53.576;9.822;2023-04-03T14:37:33;3.30;;;1.20;;
5452;SDS011;2749;53.576;9.822;2023-04-03T14:40:00;4.40;;;1.93;;
5452;SDS011;2749;53.576;9.822;2023-04-03T14:42:29;2.10;;;1.37;;
5452;SDS011;2749;53.576;9.822;2023-04-03T14:44:56;2.77;;;1.20;;
5452;SDS011;2749;53.576;9.822;2023-04-03T14:47:26;1.57;;;1.10;;
5452;SDS011;2749;53.576;9.822;2023-04-03T14:49:52;1.90;;;1.47;;
5452;SDS011;2749;53.576;9.822;2023-04-03T14:52:20;2.17;;;1.70;;
5452;SDS011;2749;53.576;9.822;2023-04-03T14:54:47;2.40;;;1.67;;
5452;SDS011;2749;53.576;9.822;2023-04-03T14:57:13;4.90;;;1.80;;
5452;SDS011;2749;53.576;9.822;2023-04-03T14:59:40;2.30;;;1.20;;
5452;SDS011;2749;53.576;9.822;2023-04-03T15:02:48;5.90;;;1.63;;
5452;SDS011;2749;53.576;9.822;2023-04-03T15:04:55;1.33;;;1.23;;
5452;SDS011;2749;53.576;9.822;2023-04-03T15:07:21;2.97;;;1.70;;
5452;SDS011;2749;53.576;9.822;2023-04-03T15:09:48;2.43;;;1.30;;
5452;SDS011;2749;53.576;9.822;2023-04-03T15:12:14;4.33;;;1.97;;
5452;SDS011;2749;53.576;9.822;2023-04-03T15:14:41;3.10;;;1.23;;
5452;SDS011;2749;53.576;9.822;2023-04-03T15:17:08;2.67;;;1.10;;
5452;SDS011;2749;53.576;9.822;2023-04-03T15:19:38;2.80;;;1.40;;
5452;SDS011;2749;53.576;9.822;2023-04-03T15:22:04;2.23;;;1.53;;
5452;SDS011;2749;53.576;9.822;2023-04-03T15:24:30;5.13;;;1.97;;
5452;SDS011;2749;53.576;9.822;2023-04-03T15:26:56;1.60;;;1.10;;
5452;SDS011;2749;53.576;9.822;2023-04-03T15:29:22;3.17;;;1.50;;
5452;SDS011;2749;53.576;9.822;2023-04-03T15:31:48;2.03;;;1.60;;
5452;SDS011;2749;53.576;9.822;2023-04-03T15:34:17;2.70;;;1.57;;
5452;SDS011;2749;53.576;9.822;2023-04-03T15:36:43;2.77;;;1.37;;
5452;SDS011;2749;53.576;9.822;2023-04-03T15:39:09;5.10;;;1.80;;
5452;SDS011;2749;53.576;9.822;2023-04-03T15:41:35;2.00;;;1.20;;
5452;SDS011;2749;53.576;9.822;2023-04-03T15:44:01;3.67;;;1.60;;
5452;SDS011;2749;53.576;9.822;2023-04-03T15:46:27;2.47;;;1.47;;
5452;SDS011;2749;53.576;9.822;2023-04-03T15:48:53;2.20;;;1.40;;
5452;SDS011;2749;53.576;9.822;2023-04-03T15:51:19;5.60;;;1.67;;
5452;SDS011;2749;53.576;9.822;2023-04-03T15:53:45;3.93;;;2.30;;
5452;SDS011;2749;53.576;9.822;2023-04-03T15:56:10;1.83;;;1.27;;
5452;SDS011;2749;53.576;9.822;2023-04-03T15:58:37;1.20;;;1.10;;
5452;SDS011;2749;53.576;9.822;2023-04-03T16:01:03;4.30;;;1.50;;
5452;SDS011;2749;53.576;9.822;2023-04-03T16:03:29;8.93;;;1.73;;
5452;SDS011;2749;53.576;9.822;2023-04-03T16:05:55;1.97;;;1.60;;
5452;SDS011;2749;53.576;9.822;2023-04-03T16:08:21;3.13;;;1.03;;
5452;SDS011;2749;53.576;9.822;2023-04-03T16:10:47;2.97;;;1.93;;
5452;SDS011;2749;53.576;9.822;2023-04-03T16:13:15;5.10;;;1.80;;
5452;SDS011;2749;53.576;9.822;2023-04-03T16:15:40;4.10;;;1.63;;
5452;SDS011;2749;53.576;9.822;2023-04-03T16:18:07;1.87;;;1.53;;
5452;SDS011;2749;53.576;9.822;2023-04-03T16:20:34;2.53;;;1.43;;
5452;SDS011;2749;53.576;9.822;2023-04-03T16:23:00;3.27;;;1.30;;
5452;SDS011;2749;53.576;9.822;2023-04-03T16:25:26;2.40;;;1.67;;
5452;SDS011;2749;53.576;9.822;2023-04-03T16:27:52;5.27;;;1.50;;
5452;SDS011;2749;53.576;9.822;2023-04-03T16:30:19;3.53;;;1.27;;
5452;SDS011;2749;53.576;9.822;2023-04-03T16:32:45;3.93;;;1.77;;
5452;SDS011;2749;53.576;9.822;2023-04-03T16:35:11;3.00;;;1.30;;
5452;SDS011;2749;53.576;9.822;2023-04-03T16:37:37;1.43;;;1.27;;
5452;SDS011;2749;53.576;9.822;2023-04-03T16:40:04;2.77;;;1.40;;
5452;SDS011;2749;53.576;9.822;2023-04-03T16:42:31;1.70;;;1.53;;
5452;SDS011;2749;53.576;9.822;2023-04-03T16:44:57;3.23;;;1.40;;
5452;SDS011;2749;53.576;9.822;2023-04-03T16:47:24;1.97;;;1.40;;